Ramsay, Michigan
Current Conditions -  °F | °C
As of 3:55 PM on Sunday 28 Dec 2014 (Local Time) from KIWD Reporting Station
Overcast Overcast  
Wind Chill:   Ceiling: 2600
Heat Index: 12°   Visibility: 9mi
Dew Point:   Wind: 6mph
Humidity: 79%   Direction: 320°NW
Pressure: 30.15"   Gusts: NA
Location:  46.47°N, 90°W
Report Text: KIWD 282155Z AUTO 32005KT 9SM SCT020 OVC026 M11/M14 A3015 RMK AO1
Loading
Personal Weather Stations






























Interactive Weather Map New forecast layout! Learn more

10-Day Weather Forecast

Advertisements
Track Severe Weather on mobile